createdAt,value
2019-04-06T00:00:29.294Z,25.00
2019-04-06T00:03:01.810Z,25.10
2019-04-06T00:05:34.618Z,25.30
2019-04-06T00:08:08.766Z,25.40
2019-04-06T00:10:42.126Z,25.40
2019-04-06T00:13:14.821Z,25.50
2019-04-06T00:15:47.142Z,25.70
2019-04-06T00:18:19.764Z,25.70
2019-04-06T00:20:52.260Z,25.70
2019-04-06T00:23:24.839Z,25.80
2019-04-06T00:25:57.394Z,25.70
2019-04-06T00:28:29.799Z,25.70
2019-04-06T00:31:03.538Z,26.00
2019-04-06T00:33:36.732Z,26.00
2019-04-06T00:36:09.899Z,26.10
2019-04-06T00:38:42.630Z,26.40
2019-04-06T00:41:15.557Z,26.30
2019-04-06T00:43:48.010Z,26.60
2019-04-06T00:46:20.573Z,26.40
2019-04-06T00:48:53.099Z,26.40
2019-04-06T00:51:26.828Z,26.50
2019-04-06T00:53:59.745Z,26.90
2019-04-06T00:56:32.984Z,27.10
2019-04-06T00:59:05.481Z,27.10
2019-04-06T01:01:38.078Z,26.90
2019-04-06T01:04:10.631Z,27.10
2019-04-06T01:06:43.375Z,27.10
2019-04-06T01:09:15.789Z,27.00
2019-04-06T01:11:48.660Z,27.10
2019-04-06T01:14:21.162Z,27.20
2019-04-06T01:16:53.954Z,27.10
2019-04-06T01:19:27.447Z,27.10
2019-04-06T01:21:59.859Z,27.50
2019-04-06T01:24:32.658Z,27.50
2019-04-06T01:27:05.406Z,27.50
2019-04-06T01:29:38.151Z,27.70
2019-04-06T01:32:10.742Z,27.90
2019-04-06T01:34:43.459Z,28.00
2019-04-06T01:37:16.085Z,27.60
2019-04-06T01:39:48.770Z,27.90
2019-04-06T01:42:21.456Z,28.00
2019-04-06T01:44:54.251Z,28.40
2019-04-06T01:47:47.163Z,28.50
2019-04-06T01:50:19.717Z,28.90
2019-04-06T01:52:52.101Z,29.20
2019-04-06T01:55:24.603Z,29.40
2019-04-06T01:57:57.497Z,29.40
2019-04-06T02:00:30.202Z,29.60
2019-04-06T02:03:03.246Z,29.80
2019-04-06T02:05:35.865Z,29.80
2019-04-06T02:08:08.286Z,29.70
2019-04-06T02:10:41.408Z,30.00
2019-04-06T02:13:14.782Z,30.00
2019-04-06T02:15:47.387Z,29.80
2019-04-06T02:18:20.237Z,30.00
2019-04-06T02:20:52.846Z,30.10
2019-04-06T02:23:25.219Z,30.10
2019-04-06T02:25:57.534Z,30.30
2019-04-06T02:28:30.465Z,30.60
2019-04-06T02:31:04.425Z,30.70
2019-04-06T02:33:38.012Z,30.90
2019-04-06T02:36:12.035Z,30.90
2019-04-06T02:38:45.606Z,31.00
2019-04-06T02:41:19.428Z,31.10
2019-04-06T02:43:52.015Z,31.30
2019-04-06T02:46:24.950Z,31.40
2019-04-06T02:48:57.710Z,31.50
2019-04-06T02:51:30.193Z,31.50
2019-04-06T02:54:02.994Z,31.40
2019-04-06T02:56:45.927Z,31.50
2019-04-06T02:59:10.001Z,31.60
2019-04-06T03:01:42.857Z,31.80
2019-04-06T03:04:15.822Z,32.00
2019-04-06T03:06:48.384Z,32.00
2019-04-06T03:09:21.159Z,31.90
2019-04-06T03:11:53.372Z,31.90
2019-04-06T03:14:26.486Z,32.00
2019-04-06T03:16:58.869Z,32.10
2019-04-06T03:19:31.616Z,32.20
2019-04-06T03:22:04.008Z,32.10
2019-04-06T03:24:37.002Z,32.40
2019-04-06T03:27:09.477Z,32.10
2019-04-06T03:29:56.154Z,32.00
2019-04-06T03:32:16.045Z,32.60
2019-04-06T03:34:48.751Z,32.90
2019-04-06T03:37:21.518Z,32.70
2019-04-06T03:39:54.111Z,33.10
2019-04-06T03:42:26.530Z,33.10
2019-04-06T03:44:59.572Z,32.80
2019-04-06T03:47:32.084Z,33.10
2019-04-06T03:50:05.397Z,33.20
2019-04-06T03:52:38.426Z,33.30
2019-04-06T03:55:11.264Z,33.50
2019-04-06T03:57:44.082Z,33.40
2019-04-06T04:00:16.884Z,33.80
2019-04-06T04:02:49.925Z,33.70
2019-04-06T04:05:23.876Z,33.60
2019-04-06T04:07:57.847Z,34.10
2019-04-06T04:10:32.821Z,33.90
2019-04-06T04:13:05.565Z,34.10
2019-04-06T04:15:39.359Z,33.80
2019-04-06T04:18:12.383Z,33.80
2019-04-06T04:20:45.219Z,34.30
2019-04-06T04:23:17.721Z,34.40
2019-04-06T04:25:50.270Z,34.70
2019-04-06T04:28:22.928Z,34.90
2019-04-06T04:30:55.299Z,34.90
2019-04-06T04:33:27.724Z,34.70
2019-04-06T04:36:00.196Z,34.90
2019-04-06T04:38:32.725Z,34.90
2019-04-06T04:41:05.364Z,34.90
2019-04-06T04:43:37.658Z,34.90
2019-04-06T04:46:10.193Z,35.10
2019-04-06T04:48:42.601Z,34.90
2019-04-06T04:51:15.058Z,34.10
2019-04-06T04:53:47.250Z,35.00
2019-04-06T04:56:20.135Z,35.30
2019-04-06T04:58:52.649Z,35.90
2019-04-06T05:01:25.051Z,36.00
2019-04-06T05:03:57.482Z,35.80
2019-04-06T05:06:30.103Z,36.00
2019-04-06T05:09:02.674Z,36.20
2019-04-06T05:11:35.241Z,36.40
2019-04-06T05:14:09.898Z,36.60
2019-04-06T05:16:42.745Z,36.30
2019-04-06T05:19:15.511Z,36.40
2019-04-06T05:21:48.180Z,36.30
2019-04-06T05:24:20.791Z,36.10
2019-04-06T05:26:53.644Z,36.40
2019-04-06T05:29:26.215Z,36.30
2019-04-06T05:31:58.925Z,36.20
2019-04-06T05:34:31.423Z,36.20
2019-04-06T05:37:03.785Z,36.10
2019-04-06T05:39:36.896Z,36.40
2019-04-06T05:42:09.584Z,36.70
2019-04-06T05:44:42.649Z,36.60
2019-04-06T05:47:15.164Z,35.70
2019-04-06T05:49:47.866Z,36.30
2019-04-06T05:52:21.302Z,36.60
2019-04-06T05:54:54.338Z,36.70
2019-04-06T05:57:26.850Z,37.40
2019-04-06T05:59:59.358Z,36.80
2019-04-06T06:02:31.773Z,36.00
2019-04-06T06:05:04.547Z,36.20
2019-04-06T06:07:37.060Z,36.60
2019-04-06T06:10:10.680Z,36.80
2019-04-06T06:12:45.955Z,36.80
2019-04-06T06:15:18.747Z,37.20
2019-04-06T06:17:50.870Z,36.60
2019-04-06T06:20:23.667Z,36.60
2019-04-06T06:22:56.383Z,36.80
2019-04-06T06:25:29.402Z,37.30
2019-04-06T06:28:01.793Z,37.00
2019-04-06T06:30:34.286Z,37.40
2019-04-06T06:33:06.668Z,37.80
2019-04-06T06:35:39.580Z,37.90
2019-04-06T06:38:12.175Z,37.60
2019-04-06T06:40:44.703Z,36.80
2019-04-06T06:43:17.122Z,36.80
2019-04-06T06:48:21.026Z,37.50
2019-04-06T06:50:53.571Z,35.70
2019-04-06T06:53:26.710Z,35.60
2019-04-06T06:55:59.757Z,36.00
2019-04-06T06:58:32.393Z,35.90
2019-04-06T07:01:04.886Z,36.20
2019-04-06T07:03:37.528Z,36.60
2019-04-06T07:06:10.307Z,37.00
2019-04-06T07:08:42.679Z,36.60
2019-04-06T07:11:15.165Z,37.20
2019-04-06T07:13:48.097Z,37.30
2019-04-06T07:16:20.947Z,37.30
2019-04-06T07:18:53.490Z,36.80
2019-04-06T07:21:26.076Z,37.00
2019-04-06T07:23:58.488Z,37.40
2019-04-06T07:26:30.923Z,37.40
2019-04-06T07:29:03.489Z,37.70
2019-04-06T07:31:35.911Z,37.50
2019-04-06T07:34:08.427Z,37.90
2019-04-06T07:36:40.946Z,37.50
2019-04-06T07:39:13.337Z,37.70
2019-04-06T07:41:45.838Z,37.60
2019-04-06T07:44:18.341Z,37.50
2019-04-06T07:46:50.986Z,37.70
2019-04-06T07:49:23.783Z,38.20
2019-04-06T07:51:56.328Z,38.40
2019-04-06T07:54:29.022Z,37.40
2019-04-06T07:57:01.663Z,37.40
2019-04-06T07:59:35.324Z,37.90
2019-04-06T08:02:08.150Z,37.00
2019-04-06T08:04:40.570Z,36.70
2019-04-06T08:07:13.573Z,36.90
2019-04-06T08:09:45.655Z,37.20
2019-04-06T08:12:18.231Z,36.60
2019-04-06T08:14:50.702Z,37.00
2019-04-06T08:17:23.274Z,37.60
2019-04-06T08:19:56.558Z,37.90
2019-04-06T08:22:29.104Z,38.10
2019-04-06T08:25:03.684Z,38.10
2019-04-06T08:27:37.775Z,38.00
2019-04-06T08:30:12.579Z,38.00
2019-04-06T08:32:45.023Z,37.80
2019-04-06T08:35:25.234Z,37.60
2019-04-06T08:37:51.515Z,37.30
2019-04-06T08:40:24.649Z,37.40
2019-04-06T08:42:57.755Z,37.60
2019-04-06T08:45:30.253Z,37.60
2019-04-06T08:48:03.185Z,37.40
2019-04-06T08:50:36.038Z,37.40
2019-04-06T08:53:08.339Z,37.00
2019-04-06T08:55:41.280Z,36.80
2019-04-06T08:58:14.777Z,37.40
2019-04-06T09:00:47.356Z,37.60
2019-04-06T09:03:19.767Z,37.50
2019-04-06T09:05:52.440Z,37.40
2019-04-06T09:08:25.055Z,37.30
2019-04-06T09:10:57.676Z,37.30
2019-04-06T09:13:29.994Z,37.50
2019-04-06T09:16:03.929Z,37.10
2019-04-06T09:18:36.401Z,37.00
2019-04-06T09:21:09.094Z,37.00
2019-04-06T09:23:41.615Z,37.20
2019-04-06T09:26:14.131Z,37.20
2019-04-06T09:28:46.796Z,37.20
2019-04-06T09:31:19.856Z,36.90
2019-04-06T09:33:52.674Z,37.00
2019-04-06T09:36:25.175Z,36.80
2019-04-06T09:38:57.729Z,36.80
2019-04-06T09:41:30.506Z,36.80
2019-04-06T09:44:03.018Z,36.70
2019-04-06T09:46:37.060Z,36.30
2019-04-06T09:49:11.691Z,36.30
2019-04-06T09:51:45.909Z,36.10
2019-04-06T09:54:21.299Z,36.00
2019-04-06T09:56:55.568Z,36.20
2019-04-06T09:59:35.605Z,36.20
2019-04-06T10:02:04.858Z,36.20
2019-04-06T10:04:38.695Z,36.20
2019-04-06T10:07:12.657Z,36.00
2019-04-06T10:09:46.543Z,35.90
2019-04-06T10:12:20.459Z,35.90
2019-04-06T10:14:54.019Z,35.90
2019-04-06T10:17:28.103Z,35.70
2019-04-06T10:20:01.718Z,35.40
2019-04-06T10:22:35.639Z,35.30
2019-04-06T10:25:11.416Z,35.20
2019-04-06T10:27:45.365Z,35.10
2019-04-06T10:30:20.291Z,35.00
2019-04-06T10:32:54.180Z,35.00
2019-04-06T10:35:28.599Z,34.90
2019-04-06T10:38:02.510Z,34.80
2019-04-06T10:40:36.418Z,34.80
2019-04-06T10:43:10.305Z,34.80
2019-04-06T10:45:44.365Z,34.70
2019-04-06T10:48:18.319Z,34.70
2019-04-06T10:50:52.222Z,34.60
2019-04-06T10:53:27.127Z,34.60
2019-04-06T10:56:01.062Z,34.40
2019-04-06T10:58:34.822Z,34.40
2019-04-06T11:01:09.254Z,34.30
2019-04-06T11:03:43.601Z,34.30
2019-04-06T11:06:17.328Z,34.10
2019-04-06T11:08:50.973Z,34.10
2019-04-06T11:11:25.035Z,34.10
2019-04-06T11:13:58.751Z,34.00
2019-04-06T11:16:32.676Z,34.00
2019-04-06T11:19:06.689Z,34.00
2019-04-06T11:21:41.367Z,33.90
2019-04-06T11:24:15.094Z,33.80
2019-04-06T11:26:49.029Z,33.70
2019-04-06T11:29:22.940Z,33.60
2019-04-06T11:31:56.949Z,33.60
2019-04-06T11:34:30.933Z,33.50
2019-04-06T11:37:04.799Z,33.50
2019-04-06T11:39:39.101Z,33.20
2019-04-06T11:42:12.800Z,33.00
2019-04-06T11:44:48.164Z,33.10
2019-04-06T11:47:23.114Z,33.10
2019-04-06T11:49:57.164Z,33.10
2019-04-06T11:52:30.980Z,33.10
2019-04-06T11:55:05.948Z,33.00
2019-04-06T11:57:39.593Z,33.00
2019-04-06T12:00:24.476Z,32.80
2019-04-06T12:02:49.054Z,32.80
2019-04-06T12:05:23.179Z,32.80
2019-04-06T12:07:56.750Z,32.80
2019-04-06T12:10:30.366Z,32.80
2019-04-06T12:13:04.068Z,32.60
2019-04-06T12:15:38.219Z,32.60
2019-04-06T12:18:12.021Z,32.70
2019-04-06T12:20:45.773Z,32.70
2019-04-06T12:23:19.956Z,32.70
2019-04-06T12:25:54.264Z,32.60
2019-04-06T12:28:27.956Z,32.60
2019-04-06T12:31:01.991Z,32.50
2019-04-06T12:33:35.990Z,32.50
2019-04-06T12:36:10.049Z,32.20
2019-04-06T12:38:44.614Z,32.10
2019-04-06T12:41:18.540Z,32.10
2019-04-06T12:43:54.288Z,32.10
2019-04-06T12:46:28.075Z,32.10
2019-04-06T12:49:02.198Z,32.20
2019-04-06T12:51:35.922Z,32.10
2019-04-06T12:54:10.135Z,32.10
2019-04-06T12:56:44.124Z,31.90
2019-04-06T12:59:18.483Z,32.00
2019-04-06T13:01:52.280Z,32.00
2019-04-06T13:04:26.672Z,32.00
2019-04-06T13:07:00.577Z,32.00
2019-04-06T13:09:35.509Z,31.90
2019-04-06T13:12:09.418Z,31.80
2019-04-06T13:14:43.666Z,31.70
2019-04-06T13:17:17.565Z,31.70
2019-04-06T13:19:51.777Z,31.60
2019-04-06T13:22:26.292Z,31.50
2019-04-06T13:25:00.390Z,31.50
2019-04-06T13:27:34.713Z,31.50
2019-04-06T13:30:09.962Z,31.40
2019-04-06T13:32:44.068Z,31.40
2019-04-06T13:35:18.410Z,31.40
2019-04-06T13:37:53.024Z,31.30
2019-04-06T13:40:28.388Z,31.30
2019-04-06T13:43:02.976Z,31.30
2019-04-06T13:45:36.954Z,31.20
2019-04-06T13:48:11.141Z,31.20
2019-04-06T13:50:46.110Z,31.10
2019-04-06T13:53:20.162Z,31.20
2019-04-06T13:55:54.262Z,31.00
2019-04-06T13:58:28.685Z,31.10
2019-04-06T14:01:13.331Z,31.10
2019-04-06T14:03:38.058Z,31.10
2019-04-06T14:06:12.007Z,31.00
2019-04-06T14:08:46.207Z,30.90
2019-04-06T14:11:19.793Z,30.90
2019-04-06T14:13:53.774Z,30.90
2019-04-06T14:16:27.908Z,30.90
2019-04-06T14:19:02.837Z,30.80
2019-04-06T14:21:36.682Z,30.70
2019-04-06T14:24:11.128Z,30.60
2019-04-06T14:26:45.672Z,30.50
2019-04-06T14:29:19.637Z,30.60
2019-04-06T14:31:54.105Z,30.70
2019-04-06T14:34:28.238Z,30.70
2019-04-06T14:37:02.053Z,30.50
2019-04-06T14:39:35.720Z,30.30
2019-04-06T14:42:09.276Z,30.40
2019-04-06T14:44:43.658Z,30.50
2019-04-06T14:47:17.231Z,30.40
2019-04-06T14:49:51.878Z,30.20
2019-04-06T14:52:26.399Z,30.20
2019-04-06T14:55:00.160Z,30.30
2019-04-06T14:57:35.350Z,30.30
2019-04-06T15:00:10.964Z,30.20
2019-04-06T15:02:44.829Z,29.90
2019-04-06T15:05:18.747Z,29.70
2019-04-06T15:07:52.940Z,29.50
2019-04-06T15:10:26.799Z,29.40
2019-04-06T15:13:00.992Z,29.40
2019-04-06T15:15:34.750Z,29.40
2019-04-06T15:18:09.377Z,29.50
2019-04-06T15:20:44.834Z,29.50
2019-04-06T15:23:19.797Z,29.40
2019-04-06T15:25:53.424Z,29.50
2019-04-06T15:28:27.538Z,29.40
2019-04-06T15:31:01.284Z,29.50
2019-04-06T15:33:35.294Z,29.70
2019-04-06T15:36:09.842Z,29.70
2019-04-06T15:38:44.251Z,29.50
2019-04-06T15:41:18.819Z,29.60
2019-04-06T15:43:52.555Z,29.50
2019-04-06T15:46:26.705Z,29.30
2019-04-06T15:49:01.334Z,29.30
2019-04-06T15:51:36.127Z,29.30
2019-04-06T15:54:10.365Z,29.30
2019-04-06T15:56:44.866Z,29.30
2019-04-06T15:59:20.413Z,29.30
2019-04-06T16:02:01.511Z,29.30
2019-04-06T16:04:31.524Z,29.30
2019-04-06T16:07:05.314Z,29.50
2019-04-06T16:09:41.585Z,29.40
2019-04-06T16:12:14.279Z,29.50
2019-04-06T16:14:48.514Z,29.40
2019-04-06T16:17:24.031Z,29.50
2019-04-06T16:19:58.770Z,29.60
2019-04-06T16:22:32.625Z,29.60
2019-04-06T16:25:06.876Z,29.40
2019-04-06T16:27:40.843Z,29.40
2019-04-06T16:30:16.337Z,29.40
2019-04-06T16:32:50.776Z,29.30
2019-04-06T16:35:25.070Z,29.30
2019-04-06T16:37:59.080Z,29.30
2019-04-06T16:40:33.352Z,29.40
2019-04-06T16:43:07.016Z,29.30
2019-04-06T16:45:40.907Z,29.30
2019-04-06T16:48:14.574Z,29.30
2019-04-06T16:50:48.622Z,29.20
2019-04-06T16:53:23.521Z,29.20
2019-04-06T16:55:57.362Z,29.10
2019-04-06T16:58:31.046Z,29.00
2019-04-06T17:01:05.168Z,29.10
2019-04-06T17:03:38.714Z,29.10
2019-04-06T17:06:12.755Z,29.00
2019-04-06T17:08:46.947Z,29.00
2019-04-06T17:11:21.042Z,28.90
2019-04-06T17:13:55.589Z,28.90
2019-04-06T17:16:29.956Z,28.80
2019-04-06T17:19:04.585Z,28.90
2019-04-06T17:21:38.288Z,28.70
2019-04-06T17:24:12.403Z,28.80
2019-04-06T17:26:46.190Z,28.90
2019-04-06T17:29:20.242Z,29.00
2019-04-06T17:31:54.501Z,29.00
2019-04-06T17:34:29.187Z,28.70
2019-04-06T17:37:03.278Z,28.70
2019-04-06T17:39:37.159Z,28.90
2019-04-06T17:42:10.935Z,28.80
2019-04-06T17:44:45.377Z,28.90
2019-04-06T17:47:19.431Z,28.60
2019-04-06T17:49:52.919Z,28.40
2019-04-06T17:52:26.731Z,28.50
2019-04-06T17:55:01.168Z,28.70
2019-04-06T17:57:35.518Z,28.50
2019-04-06T18:00:10.856Z,28.40
2019-04-06T18:02:49.249Z,28.50
2019-04-06T18:05:19.987Z,28.50
2019-04-06T18:07:54.463Z,28.60
2019-04-06T18:10:29.612Z,28.60
2019-04-06T18:13:03.884Z,28.50
2019-04-06T18:15:37.388Z,28.40
2019-04-06T18:18:09.868Z,28.40
2019-04-06T18:20:42.166Z,28.30
2019-04-06T18:23:14.697Z,28.30
2019-04-06T18:25:47.102Z,28.30
2019-04-06T18:28:19.783Z,28.40
2019-04-06T18:30:53.712Z,28.40
2019-04-06T18:33:28.560Z,28.40
2019-04-06T18:36:01.160Z,28.40
2019-04-06T18:38:35.436Z,28.00
2019-04-06T18:41:08.050Z,27.70
2019-04-06T18:43:40.673Z,27.70
2019-04-06T18:46:15.365Z,27.60
2019-04-06T18:48:47.442Z,27.90
2019-04-06T18:51:20.648Z,27.90
2019-04-06T18:53:53.696Z,27.90
2019-04-06T18:56:26.619Z,27.80
2019-04-06T18:58:59.357Z,27.80
2019-04-06T19:01:31.741Z,27.70
2019-04-06T19:04:04.093Z,27.60
2019-04-06T19:06:36.625Z,27.60
2019-04-06T19:09:20.512Z,27.60
2019-04-06T19:11:53.616Z,27.70
2019-04-06T19:14:18.804Z,27.60
2019-04-06T19:16:51.428Z,27.60
2019-04-06T19:19:24.791Z,27.60
2019-04-06T19:21:57.957Z,27.70
2019-04-06T19:24:31.444Z,27.80
2019-04-06T19:27:04.442Z,27.70
2019-04-06T19:29:37.287Z,27.70
2019-04-06T19:32:10.313Z,27.90
2019-04-06T19:34:43.026Z,27.60
2019-04-06T19:37:15.380Z,27.70
2019-04-06T19:39:48.325Z,27.70
2019-04-06T19:42:21.456Z,27.70
2019-04-06T19:44:53.854Z,27.70
2019-04-06T19:47:26.513Z,27.60
2019-04-06T19:49:59.326Z,27.70
2019-04-06T19:52:31.930Z,27.60
2019-04-06T19:55:07.464Z,27.60
2019-04-06T19:57:40.407Z,27.50
2019-04-06T20:00:14.220Z,27.50
2019-04-06T20:02:47.317Z,27.50
2019-04-06T20:05:20.701Z,27.40
2019-04-06T20:07:53.971Z,27.30
2019-04-06T20:10:26.527Z,27.40
2019-04-06T20:12:59.939Z,27.50
2019-04-06T20:15:32.214Z,27.50
2019-04-06T20:18:05.064Z,27.40
2019-04-06T20:20:37.655Z,27.40
2019-04-06T20:23:11.087Z,27.40
2019-04-06T20:25:43.954Z,27.30
2019-04-06T20:28:16.955Z,27.30
2019-04-06T20:30:49.747Z,27.30
2019-04-06T20:33:23.103Z,27.30
2019-04-06T20:35:55.882Z,27.40
2019-04-06T20:38:28.282Z,27.10
2019-04-06T20:41:00.785Z,27.00
2019-04-06T20:43:33.087Z,26.80
2019-04-06T20:46:06.382Z,26.90
2019-04-06T20:48:38.815Z,27.00
2019-04-06T20:51:11.609Z,27.10
2019-04-06T20:53:44.551Z,27.10
2019-04-06T20:56:17.184Z,27.20
2019-04-06T20:58:49.575Z,27.10
2019-04-06T21:01:22.522Z,27.10
2019-04-06T21:04:00.994Z,27.10
2019-04-06T21:06:29.128Z,27.10
2019-04-06T21:09:02.109Z,26.70
2019-04-06T21:11:36.667Z,26.60
2019-04-06T21:14:10.029Z,26.60
2019-04-06T21:16:42.581Z,26.60
2019-04-06T21:19:15.001Z,26.80
2019-04-06T21:21:47.114Z,26.70
2019-04-06T21:24:19.444Z,26.60
2019-04-06T21:26:52.250Z,26.80
2019-04-06T21:29:24.687Z,27.00
2019-04-06T21:31:57.410Z,27.00
2019-04-06T21:34:30.415Z,27.00
2019-04-06T21:37:03.229Z,27.00
2019-04-06T21:39:37.109Z,27.00
2019-04-06T21:42:09.779Z,26.90
2019-04-06T21:44:42.451Z,26.80
2019-04-06T21:47:15.177Z,26.90
2019-04-06T21:49:48.176Z,26.80
2019-04-06T21:52:21.321Z,26.90
2019-04-06T21:54:54.172Z,26.70
2019-04-06T21:57:26.595Z,26.70
2019-04-06T21:59:59.064Z,26.70
2019-04-06T22:02:32.316Z,26.60
2019-04-06T22:05:05.769Z,26.70
2019-04-06T22:07:48.676Z,26.60
2019-04-06T22:10:13.904Z,26.30
2019-04-06T22:12:46.823Z,26.30
2019-04-06T22:15:19.340Z,26.30
2019-04-06T22:17:53.238Z,26.30
2019-04-06T22:20:26.366Z,26.30
2019-04-06T22:22:59.198Z,26.30
2019-04-06T22:25:31.863Z,26.50
2019-04-06T22:28:05.462Z,26.60
2019-04-06T22:30:39.329Z,26.60
2019-04-06T22:33:12.077Z,26.60
2019-04-06T22:35:44.410Z,26.60
2019-04-06T22:38:17.156Z,26.60
2019-04-06T22:40:50.329Z,26.50
2019-04-06T22:43:22.705Z,26.40
2019-04-06T22:45:55.371Z,26.50
2019-04-06T22:48:28.094Z,26.60
2019-04-06T22:51:00.885Z,26.60
2019-04-06T22:53:34.749Z,26.70
2019-04-06T22:56:07.589Z,26.70
2019-04-06T22:58:39.978Z,26.70
2019-04-06T23:01:13.949Z,26.60
2019-04-06T23:03:47.813Z,26.50
2019-04-06T23:06:21.878Z,26.30
2019-04-06T23:08:55.283Z,26.30
2019-04-06T23:11:27.778Z,26.30
2019-04-06T23:14:00.855Z,26.50
2019-04-06T23:16:34.065Z,26.50
2019-04-06T23:19:06.860Z,26.60
2019-04-06T23:21:39.699Z,26.60
2019-04-06T23:24:12.312Z,26.60
2019-04-06T23:26:44.666Z,26.60
2019-04-06T23:29:17.842Z,26.50
2019-04-06T23:31:51.002Z,26.60
2019-04-06T23:34:23.784Z,26.60
2019-04-06T23:36:56.831Z,26.70
2019-04-06T23:39:30.504Z,26.90
2019-04-06T23:42:03.475Z,26.80
2019-04-06T23:44:36.158Z,26.80
2019-04-06T23:47:08.895Z,26.90
2019-04-06T23:49:41.863Z,27.00
2019-04-06T23:52:14.748Z,27.00
2019-04-06T23:54:47.616Z,27.00
2019-04-06T23:57:20.922Z,27.20
2019-04-06T23:59:53.387Z,27.30
